Olanta, PA (16863)

1:47 AM EDT on July 25, 2016 (GMT -0400)
Twinoaks | | Change Station

Elev 1493 ft 40.99 °N, 78.53 °W | Updated 2 minutes ago

Overcast
Overcast
68.5 °F
Feels Like 68.5 °F
N
0.0
Wind Variable Wind from West

Today
High -- | Low -- °F
--% Chance of Precip.
Yesterday
High -- | Low -- °F
Precip. -- in
Pressure 30.03 in
Visibility 4.0 miles
Clouds Mostly Cloudy 300 ft
Overcast 700 ft
Dew Point 67 °F
Humidity 94%
Rainfall 0.00 in
Snow Depth Not available.
6:04 AM 8:36 PM
Waning Gibbous, 69% visible
SPECI KFIG 250542Z AUTO 21004KT 4SM BR BKN003 OVC007 21/20 A3003 RMK AO2 T02110200
Pressure 30.03 in
Visibility 4.0 miles
Clouds Mostly Cloudy 300 ft
Overcast 700 ft
Dew Point 67 °F
Humidity 94%
Rainfall 0.00 in
Snow Depth Not available.
6:04 AM 8:36 PM
Waning Gibbous, 69% visible
SPECI KFIG 250542Z AUTO 21004KT 4SM BR BKN003 OVC007 21/20 A3003 RMK AO2 T02110200

10-Day Weather Forecast

Almanac

Astronomy

Jul. 25, 2016 Rise Set
Actual Time
Civil Twilight
Nautical Twilight
Astronomical Twilight
Moon
Length of Visible Light
Length of Day
Tomorrow will be .
, % of the Moon is Illuminated

Today's Extremes

State Highs State Lows

Community

WunderPhotos

Upload Photos

1,927,274 photos uploaded!

WunderBlog® & News

Nearby

Air Quality

  Air Quality AQ Index Pollutant
Not available.

Snow Depth

Station Depth Elevation

Earthquake Activity

City Distance Mag. Time & Date
Minimum magnitude displayed is 2.5.

Coastal Water Temperatures

Place Temperature

Stations

Nearby Weather Stations

Station Location Temp. Windchill Dew Point Humidity Wind Precip. Elev Updated Type
                   

Watches & Warnings

There are currently no watches in effect.